Terminal Aerodrome Forecast
Issued by NWS Blacksburg, VA

Home | Current Version | Previous Version | Text Only | Print | Product List | Glossary On
Versions: 1 2 3 4 5 6 7 8 9 10 11 12 13 14 15 16 17 18 19 20 21 22 23 24 25
000
FTUS41 KRNK 222320
TAFROA
TAF
KROA 222320Z 2300/2324 VRB03KT P6SM -SHRA SCT050 OVC100
     FM230130 27003KT P6SM SCT060 BKN100
     FM231000 VRB03KT P6SM SCT025 OVC060
     FM231500 09005KT P6SM OVC050=

USA.gov is the U.S. government's official web portal to all federal, state and local government web resources and services.